sensor_id;sensor_type;location;lat;lon;timestamp;pressure;altitude;pressure_sealevel;temperature;humidity
45345;BME280;31078;48.304;11.896;2023-03-08T00:01:18;94920.13;;;2.59;60.58
45345;BME280;31078;48.304;11.896;2023-03-08T00:03:49;94926.28;;;2.60;61.02
45345;BME280;31078;48.304;11.896;2023-03-08T00:06:15;94923.91;;;2.58;61.20
45345;BME280;31078;48.304;11.896;2023-03-08T00:08:42;94918.84;;;2.57;61.62
45345;BME280;31078;48.304;11.896;2023-03-08T00:11:11;94924.81;;;2.54;61.94
45345;BME280;31078;48.304;11.896;2023-03-08T00:13:37;94930.50;;;2.52;62.51
45345;BME280;31078;48.304;11.896;2023-03-08T00:16:08;94935.06;;;2.52;62.64
45345;BME280;31078;48.304;11.896;2023-03-08T00:18:35;94940.44;;;2.52;62.77
45345;BME280;31078;48.304;11.896;2023-03-08T00:21:04;94938.66;;;2.47;63.19
45345;BME280;31078;48.304;11.896;2023-03-08T00:23:31;94938.47;;;2.44;63.60
45345;BME280;31078;48.304;11.896;2023-03-08T00:25:58;94940.84;;;2.45;63.52
45345;BME280;31078;48.304;11.896;2023-03-08T00:28:25;94940.66;;;2.42;63.97
45345;BME280;31078;48.304;11.896;2023-03-08T00:30:55;94946.03;;;2.42;64.17
45345;BME280;31078;48.304;11.896;2023-03-08T00:33:23;94929.13;;;2.41;64.31
45345;BME280;31078;48.304;11.896;2023-03-08T00:35:54;94932.88;;;2.40;64.14
45345;BME280;31078;48.304;11.896;2023-03-08T00:38:21;94936.50;;;2.35;64.45
45345;BME280;31078;48.304;11.896;2023-03-08T00:40:47;94938.06;;;2.37;64.33
45345;BME280;31078;48.304;11.896;2023-03-08T00:43:14;94936.09;;;2.28;65.01
45345;BME280;31078;48.304;11.896;2023-03-08T00:45:40;94944.03;;;2.33;64.47
45345;BME280;31078;48.304;11.896;2023-03-08T00:48:07;94946.72;;;2.33;64.71
45345;BME280;31078;48.304;11.896;2023-03-08T00:50:34;94949.41;;;2.33;64.55
45345;BME280;31078;48.304;11.896;2023-03-08T00:53:01;94944.66;;;2.30;64.66
45345;BME280;31078;48.304;11.896;2023-03-08T00:55:27;94939.75;;;2.32;64.30
45345;BME280;31078;48.304;11.896;2023-03-08T00:57:54;94940.88;;;2.31;64.52
45345;BME280;31078;48.304;11.896;2023-03-08T01:00:21;94946.81;;;2.28;64.59
45345;BME280;31078;48.304;11.896;2023-03-08T01:02:48;94931.91;;;2.22;64.45
45345;BME280;31078;48.304;11.896;2023-03-08T01:05:14;94939.97;;;2.22;64.59
45345;BME280;31078;48.304;11.896;2023-03-08T01:07:42;94939.38;;;2.25;64.26
45345;BME280;31078;48.304;11.896;2023-03-08T01:10:10;94936.19;;;2.23;64.04
45345;BME280;31078;48.304;11.896;2023-03-08T01:12:36;94934.97;;;2.29;63.17
45345;BME280;31078;48.304;11.896;2023-03-08T01:15:04;94943.03;;;2.29;63.40
45345;BME280;31078;48.304;11.896;2023-03-08T01:17:31;94943.75;;;2.21;63.65
45345;BME280;31078;48.304;11.896;2023-03-08T01:19:58;94939.06;;;2.13;64.06
45345;BME280;31078;48.304;11.896;2023-03-08T01:22:24;94934.31;;;2.10;63.97
45345;BME280;31078;48.304;11.896;2023-03-08T01:24:52;94932.53;;;2.05;64.16
45345;BME280;31078;48.304;11.896;2023-03-08T01:27:18;94935.88;;;1.97;64.48
45345;BME280;31078;48.304;11.896;2023-03-08T01:29:45;94934.69;;;1.90;65.03
45345;BME280;31078;48.304;11.896;2023-03-08T01:32:12;94927.22;;;1.87;65.48
45345;BME280;31078;48.304;11.896;2023-03-08T01:34:38;94926.97;;;1.88;65.50
45345;BME280;31078;48.304;11.896;2023-03-08T01:37:05;94924.28;;;1.88;65.53
45345;BME280;31078;48.304;11.896;2023-03-08T01:39:31;94926.34;;;1.91;65.38
45345;BME280;31078;48.304;11.896;2023-03-08T01:42:02;94928.94;;;1.96;64.92
45345;BME280;31078;48.304;11.896;2023-03-08T01:44:49;94920.19;;;1.91;65.06
45345;BME280;31078;48.304;11.896;2023-03-08T01:47:18;94927.66;;;1.94;65.00
45345;BME280;31078;48.304;11.896;2023-03-08T01:49:46;94914.81;;;1.91;64.92
45345;BME280;31078;48.304;11.896;2023-03-08T01:52:13;94919.97;;;1.87;65.06
45345;BME280;31078;48.304;11.896;2023-03-08T01:54:43;94909.34;;;1.82;65.27
45345;BME280;31078;48.304;11.896;2023-03-08T01:57:16;94906.06;;;1.85;65.26
45345;BME280;31078;48.304;11.896;2023-03-08T01:59:45;94922.56;;;1.78;65.32
45345;BME280;31078;48.304;11.896;2023-03-08T02:02:13;94919.38;;;1.76;65.29
45345;BME280;31078;48.304;11.896;2023-03-08T02:04:41;94914.78;;;1.77;65.16
45345;BME280;31078;48.304;11.896;2023-03-08T02:07:08;94913.22;;;1.76;65.42
45345;BME280;31078;48.304;11.896;2023-03-08T02:09:34;94910.84;;;1.74;65.45
45345;BME280;31078;48.304;11.896;2023-03-08T02:12:03;94899.72;;;1.67;65.57
45345;BME280;31078;48.304;11.896;2023-03-08T02:14:33;94902.09;;;1.69;65.18
45345;BME280;31078;48.304;11.896;2023-03-08T02:17:00;94899.09;;;1.70;64.96
45345;BME280;31078;48.304;11.896;2023-03-08T02:19:32;94896.72;;;1.69;65.00
45345;BME280;31078;48.304;11.896;2023-03-08T02:22:07;94894.34;;;1.67;65.03
45345;BME280;31078;48.304;11.896;2023-03-08T02:24:35;94889.56;;;1.64;65.23
45345;BME280;31078;48.304;11.896;2023-03-08T02:27:04;94888.56;;;1.60;65.33
45345;BME280;31078;48.304;11.896;2023-03-08T02:29:31;94881.59;;;1.59;65.42
45345;BME280;31078;48.304;11.896;2023-03-08T02:31:58;94876.22;;;1.59;65.50
45345;BME280;31078;48.304;11.896;2023-03-08T02:34:24;94887.28;;;1.58;65.34
45345;BME280;31078;48.304;11.896;2023-03-08T02:36:51;94888.06;;;1.58;65.34
45345;BME280;31078;48.304;11.896;2023-03-08T02:39:17;94889.16;;;1.57;65.43
45345;BME280;31078;48.304;11.896;2023-03-08T02:41:45;94888.94;;;1.53;65.61
45345;BME280;31078;48.304;11.896;2023-03-08T02:44:11;94890.03;;;1.52;65.59
45345;BME280;31078;48.304;11.896;2023-03-08T02:46:38;94888.94;;;1.53;65.51
45345;BME280;31078;48.304;11.896;2023-03-08T02:49:04;94884.97;;;1.51;65.50
45345;BME280;31078;48.304;11.896;2023-03-08T02:51:31;94882.97;;;1.56;65.30
45345;BME280;31078;48.304;11.896;2023-03-08T02:53:57;94874.75;;;1.53;65.60
45345;BME280;31078;48.304;11.896;2023-03-08T02:56:24;94872.06;;;1.53;65.84
45345;BME280;31078;48.304;11.896;2023-03-08T02:58:51;94878.81;;;1.50;65.56
45345;BME280;31078;48.304;11.896;2023-03-08T03:01:18;94876.31;;;1.54;65.51
45345;BME280;31078;48.304;11.896;2023-03-08T03:03:45;94871.06;;;1.49;65.82
45345;BME280;31078;48.304;11.896;2023-03-08T03:06:13;94877.81;;;1.46;66.08
45345;BME280;31078;48.304;11.896;2023-03-08T03:08:40;94878.41;;;1.43;65.93
45345;BME280;31078;48.304;11.896;2023-03-08T03:11:10;94879.78;;;1.41;66.24
45345;BME280;31078;48.304;11.896;2023-03-08T03:13:37;94881.19;;;1.38;66.26
45345;BME280;31078;48.304;11.896;2023-03-08T03:16:06;94880.16;;;1.34;66.42
45345;BME280;31078;48.304;11.896;2023-03-08T03:18:33;94873.53;;;1.32;66.68
45345;BME280;31078;48.304;11.896;2023-03-08T03:21:02;94883.16;;;1.33;66.69
45345;BME280;31078;48.304;11.896;2023-03-08T03:23:28;94883.72;;;1.29;66.96
45345;BME280;31078;48.304;11.896;2023-03-08T03:25:55;94872.50;;;1.27;66.96
45345;BME280;31078;48.304;11.896;2023-03-08T03:28:22;94872.03;;;1.25;66.95
45345;BME280;31078;48.304;11.896;2023-03-08T03:30:48;94871.50;;;1.23;67.31
45345;BME280;31078;48.304;11.896;2023-03-08T03:33:16;94872.59;;;1.22;67.46
45345;BME280;31078;48.304;11.896;2023-03-08T03:35:42;94870.50;;;1.19;67.39
45345;BME280;31078;48.304;11.896;2023-03-08T03:38:09;94861.88;;;1.22;67.79
45345;BME280;31078;48.304;11.896;2023-03-08T03:40:35;94861.78;;;1.27;67.66
45345;BME280;31078;48.304;11.896;2023-03-08T03:43:02;94866.66;;;1.25;67.66
45345;BME280;31078;48.304;11.896;2023-03-08T03:45:28;94859.78;;;1.19;67.91
45345;BME280;31078;48.304;11.896;2023-03-08T03:47:55;94856.13;;;1.15;68.31
45345;BME280;31078;48.304;11.896;2023-03-08T03:50:22;94858.50;;;1.17;68.02
45345;BME280;31078;48.304;11.896;2023-03-08T03:52:49;94859.38;;;1.12;68.45
45345;BME280;31078;48.304;11.896;2023-03-08T03:55:15;94863.94;;;1.12;68.40
45345;BME280;31078;48.304;11.896;2023-03-08T03:57:42;94863.81;;;1.03;68.98
45345;BME280;31078;48.304;11.896;2023-03-08T04:00:10;94865.00;;;0.97;69.05
45345;BME280;31078;48.304;11.896;2023-03-08T04:02:36;94866.09;;;0.96;69.15
45345;BME280;31078;48.304;11.896;2023-03-08T04:05:03;94863.41;;;0.96;68.96
45345;BME280;31078;48.304;11.896;2023-03-08T04:07:31;94861.81;;;0.95;68.97
45345;BME280;31078;48.304;11.896;2023-03-08T04:09:58;94862.63;;;0.95;69.00
45345;BME280;31078;48.304;11.896;2023-03-08T04:12:25;94863.19;;;0.92;69.33
45345;BME280;31078;48.304;11.896;2023-03-08T04:14:52;94863.97;;;0.93;69.22
45345;BME280;31078;48.304;11.896;2023-03-08T04:17:19;94861.03;;;0.94;69.25
45345;BME280;31078;48.304;11.896;2023-03-08T04:19:47;94860.00;;;0.90;69.22
45345;BME280;31078;48.304;11.896;2023-03-08T04:22:13;94854.84;;;0.94;69.32
45345;BME280;31078;48.304;11.896;2023-03-08T04:24:41;94855.44;;;0.91;69.14
45345;BME280;31078;48.304;11.896;2023-03-08T04:27:08;94847.63;;;0.94;69.13
45345;BME280;31078;48.304;11.896;2023-03-08T04:29:34;94842.84;;;0.91;69.28
45345;BME280;31078;48.304;11.896;2023-03-08T04:32:01;94847.31;;;0.96;68.97
45345;BME280;31078;48.304;11.896;2023-03-08T04:34:27;94835.59;;;0.92;69.11
45345;BME280;31078;48.304;11.896;2023-03-08T04:36:54;94830.44;;;0.95;69.26
45345;BME280;31078;48.304;11.896;2023-03-08T04:39:20;94830.63;;;0.99;69.03
45345;BME280;31078;48.304;11.896;2023-03-08T04:41:48;94823.69;;;0.98;69.16
45345;BME280;31078;48.304;11.896;2023-03-08T04:44:14;94820.44;;;1.01;69.00
45345;BME280;31078;48.304;11.896;2023-03-08T04:46:41;94824.31;;;1.09;68.89
45345;BME280;31078;48.304;11.896;2023-03-08T04:49:07;94820.84;;;1.08;68.72
45345;BME280;31078;48.304;11.896;2023-03-08T04:51:34;94810.63;;;1.10;68.41
45345;BME280;31078;48.304;11.896;2023-03-08T04:54:00;94811.81;;;1.18;68.76
45345;BME280;31078;48.304;11.896;2023-03-08T04:56:28;94805.88;;;1.21;68.53
45345;BME280;31078;48.304;11.896;2023-03-08T04:58:56;94802.78;;;1.27;67.86
45345;BME280;31078;48.304;11.896;2023-03-08T05:01:23;94803.28;;;1.29;67.74
45345;BME280;31078;48.304;11.896;2023-03-08T05:03:50;94795.13;;;1.35;67.59
45345;BME280;31078;48.304;11.896;2023-03-08T05:06:18;94797.25;;;1.38;67.56
45345;BME280;31078;48.304;11.896;2023-03-08T05:08:45;94787.78;;;1.40;67.37
45345;BME280;31078;48.304;11.896;2023-03-08T05:11:16;94786.91;;;1.45;67.44
45345;BME280;31078;48.304;11.896;2023-03-08T05:13:43;94780.66;;;1.49;67.30
45345;BME280;31078;48.304;11.896;2023-03-08T05:16:10;94773.91;;;1.52;67.14
45345;BME280;31078;48.304;11.896;2023-03-08T05:18:37;94763.34;;;1.55;67.39
45345;BME280;31078;48.304;11.896;2023-03-08T05:21:05;94765.44;;;1.59;67.24
45345;BME280;31078;48.304;11.896;2023-03-08T05:23:33;94762.25;;;1.70;66.92
45345;BME280;31078;48.304;11.896;2023-03-08T05:26:01;94763.63;;;1.81;66.75
45345;BME280;31078;48.304;11.896;2023-03-08T05:28:29;94768.75;;;1.92;66.41
45345;BME280;31078;48.304;11.896;2023-03-08T05:31:00;94769.16;;;1.99;66.19
45345;BME280;31078;48.304;11.896;2023-03-08T05:33:29;94764.63;;;2.08;66.07
45345;BME280;31078;48.304;11.896;2023-03-08T05:35:55;94764.03;;;2.11;65.88
45345;BME280;31078;48.304;11.896;2023-03-08T05:38:23;94757.25;;;2.14;66.00
45345;BME280;31078;48.304;11.896;2023-03-08T05:40:50;94760.16;;;2.17;65.81
45345;BME280;31078;48.304;11.896;2023-03-08T05:43:17;94756.06;;;2.20;65.87
45345;BME280;31078;48.304;11.896;2023-03-08T05:45:53;94758.13;;;2.23;65.45
45345;BME280;31078;48.304;11.896;2023-03-08T05:48:19;94762.25;;;2.20;65.60
45345;BME280;31078;48.304;11.896;2023-03-08T05:50:47;94744.72;;;2.23;65.37
45345;BME280;31078;48.304;11.896;2023-03-08T05:53:14;94730.38;;;2.27;65.34
45345;BME280;31078;48.304;11.896;2023-03-08T05:55:40;94726.56;;;2.28;65.58
45345;BME280;31078;48.304;11.896;2023-03-08T05:58:06;94729.47;;;2.32;65.27
45345;BME280;31078;48.304;11.896;2023-03-08T06:00:33;94723.59;;;2.30;65.08
45345;BME280;31078;48.304;11.896;2023-03-08T06:03:00;94726.22;;;2.21;65.22
45345;BME280;31078;48.304;11.896;2023-03-08T06:05:28;94721.66;;;2.22;65.25
45345;BME280;31078;48.304;11.896;2023-03-08T06:07:56;94728.28;;;2.24;65.35
45345;BME280;31078;48.304;11.896;2023-03-08T06:10:25;94735.16;;;2.30;65.28
45345;BME280;31078;48.304;11.896;2023-03-08T06:12:52;94742.94;;;2.18;66.13
45345;BME280;31078;48.304;11.896;2023-03-08T06:15:18;94742.19;;;2.04;67.17
45345;BME280;31078;48.304;11.896;2023-03-08T06:17:45;94738.44;;;1.91;67.29
45345;BME280;31078;48.304;11.896;2023-03-08T06:20:11;94746.47;;;2.05;67.08
45345;BME280;31078;48.304;11.896;2023-03-08T06:22:40;94744.38;;;2.02;67.62
45345;BME280;31078;48.304;11.896;2023-03-08T06:25:08;94741.00;;;2.10;67.23
45345;BME280;31078;48.304;11.896;2023-03-08T06:27:35;94742.34;;;2.21;67.41
45345;BME280;31078;48.304;11.896;2023-03-08T06:30:02;94746.69;;;2.31;66.80
45345;BME280;31078;48.304;11.896;2023-03-08T06:32:28;94742.44;;;2.39;66.60
45345;BME280;31078;48.304;11.896;2023-03-08T06:34:55;94749.59;;;2.43;66.84
45345;BME280;31078;48.304;11.896;2023-03-08T06:37:21;94754.19;;;2.43;66.78
45345;BME280;31078;48.304;11.896;2023-03-08T06:39:48;94749.91;;;2.42;66.86
45345;BME280;31078;48.304;11.896;2023-03-08T06:42:16;94753.16;;;2.52;66.57
45345;BME280;31078;48.304;11.896;2023-03-08T06:44:42;94752.72;;;2.59;66.45
45345;BME280;31078;48.304;11.896;2023-03-08T06:47:08;94748.66;;;2.70;66.18
45345;BME280;31078;48.304;11.896;2023-03-08T06:49:35;94752.22;;;2.79;65.95
45345;BME280;31078;48.304;11.896;2023-03-08T06:52:02;94745.91;;;2.84;65.92
45345;BME280;31078;48.304;11.896;2023-03-08T06:54:30;94746.91;;;2.97;65.76
45345;BME280;31078;48.304;11.896;2023-03-08T06:56:57;94747.09;;;3.00;65.26
45345;BME280;31078;48.304;11.896;2023-03-08T06:59:32;94751.53;;;2.74;65.97
45345;BME280;31078;48.304;11.896;2023-03-08T07:01:58;94749.59;;;2.97;65.50
45345;BME280;31078;48.304;11.896;2023-03-08T07:04:25;94761.69;;;3.08;65.16
45345;BME280;31078;48.304;11.896;2023-03-08T07:06:51;94761.59;;;2.91;65.30
45345;BME280;31078;48.304;11.896;2023-03-08T07:09:17;94759.53;;;2.87;65.74
45345;BME280;31078;48.304;11.896;2023-03-08T07:11:44;94759.69;;;2.91;65.80
45345;BME280;31078;48.304;11.896;2023-03-08T07:14:10;94768.16;;;3.07;65.71
45345;BME280;31078;48.304;11.896;2023-03-08T07:16:38;94768.69;;;3.18;64.93
45345;BME280;31078;48.304;11.896;2023-03-08T07:19:04;94771.25;;;3.23;65.28
45345;BME280;31078;48.304;11.896;2023-03-08T07:21:31;94771.91;;;3.28;65.13
45345;BME280;31078;48.304;11.896;2023-03-08T07:23:57;94760.41;;;3.36;64.90
45345;BME280;31078;48.304;11.896;2023-03-08T07:26:24;94760.72;;;3.44;64.89
45345;BME280;31078;48.304;11.896;2023-03-08T07:28:50;94755.53;;;3.47;64.47
45345;BME280;31078;48.304;11.896;2023-03-08T07:31:17;94759.47;;;3.50;64.54
45345;BME280;31078;48.304;11.896;2023-03-08T07:33:45;94756.63;;;3.46;64.52
45345;BME280;31078;48.304;11.896;2023-03-08T07:36:12;94764.06;;;3.49;64.65
45345;BME280;31078;48.304;11.896;2023-03-08T07:38:38;94770.59;;;3.57;64.60
45345;BME280;31078;48.304;11.896;2023-03-08T07:41:05;94765.25;;;3.74;64.00
45345;BME280;31078;48.304;11.896;2023-03-08T07:43:31;94764.00;;;3.80;63.90
45345;BME280;31078;48.304;11.896;2023-03-08T07:45:59;94769.84;;;3.74;63.76
45345;BME280;31078;48.304;11.896;2023-03-08T07:48:26;94763.69;;;3.90;63.45
45345;BME280;31078;48.304;11.896;2023-03-08T07:50:59;94752.00;;;3.95;63.59
45345;BME280;31078;48.304;11.896;2023-03-08T07:53:26;94753.59;;;4.05;62.88
45345;BME280;31078;48.304;11.896;2023-03-08T07:55:53;94763.75;;;4.08;62.46
45345;BME280;31078;48.304;11.896;2023-03-08T07:58:19;94765.34;;;4.09;62.55
45345;BME280;31078;48.304;11.896;2023-03-08T08:00:46;94759.28;;;4.12;62.64
45345;BME280;31078;48.304;11.896;2023-03-08T08:03:12;94750.91;;;4.22;62.31
45345;BME280;31078;48.304;11.896;2023-03-08T08:05:39;94743.94;;;4.30;62.03
45345;BME280;31078;48.304;11.896;2023-03-08T08:08:07;94748.69;;;4.33;61.81
45345;BME280;31078;48.304;11.896;2023-03-08T08:10:34;94734.25;;;4.37;62.28
45345;BME280;31078;48.304;11.896;2023-03-08T08:13:01;94734.44;;;4.50;61.76
45345;BME280;31078;48.304;11.896;2023-03-08T08:15:27;94715.88;;;4.57;61.50
45345;BME280;31078;48.304;11.896;2023-03-08T08:17:55;94721.56;;;4.64;61.15
45345;BME280;31078;48.304;11.896;2023-03-08T08:20:21;94719.50;;;4.52;61.72
45345;BME280;31078;48.304;11.896;2023-03-08T08:22:49;94716.47;;;4.71;61.46
45345;BME280;31078;48.304;11.896;2023-03-08T08:25:19;94709.34;;;4.75;60.75
45345;BME280;31078;48.304;11.896;2023-03-08T08:27:46;94703.72;;;4.97;60.61
45345;BME280;31078;48.304;11.896;2023-03-08T08:30:13;94701.44;;;5.17;60.01
45345;BME280;31078;48.304;11.896;2023-03-08T08:32:40;94689.78;;;5.34;59.83
45345;BME280;31078;48.304;11.896;2023-03-08T08:35:07;94694.28;;;5.50;59.75
45345;BME280;31078;48.304;11.896;2023-03-08T08:37:34;94676.66;;;5.74;59.80
45345;BME280;31078;48.304;11.896;2023-03-08T08:40:00;94673.88;;;5.91;58.95
45345;BME280;31078;48.304;11.896;2023-03-08T08:42:29;94658.78;;;5.90;58.92
45345;BME280;31078;48.304;11.896;2023-03-08T08:44:55;94649.63;;;6.04;59.63
45345;BME280;31078;48.304;11.896;2023-03-08T08:47:22;94649.56;;;6.12;59.14
45345;BME280;31078;48.304;11.896;2023-03-08T08:49:48;94650.78;;;6.15;58.50
45345;BME280;31078;48.304;11.896;2023-03-08T08:52:15;94651.06;;;6.22;57.94
45345;BME280;31078;48.304;11.896;2023-03-08T08:54:41;94633.63;;;5.98;57.98
45345;BME280;31078;48.304;11.896;2023-03-08T08:57:08;94635.88;;;5.96;58.86
45345;BME280;31078;48.304;11.896;2023-03-08T08:59:35;94625.34;;;6.16;57.64
45345;BME280;31078;48.304;11.896;2023-03-08T09:02:02;94615.53;;;6.32;56.42
45345;BME280;31078;48.304;11.896;2023-03-08T09:04:29;94607.22;;;6.37;55.99
45345;BME280;31078;48.304;11.896;2023-03-08T09:06:56;94601.25;;;6.44;56.40
45345;BME280;31078;48.304;11.896;2023-03-08T09:09:23;94591.78;;;6.38;56.17
45345;BME280;31078;48.304;11.896;2023-03-08T09:11:51;94579.28;;;6.58;56.20
45345;BME280;31078;48.304;11.896;2023-03-08T09:14:17;94576.63;;;6.70;55.26
45345;BME280;31078;48.304;11.896;2023-03-08T09:16:45;94564.56;;;6.79;55.25
45345;BME280;31078;48.304;11.896;2023-03-08T09:19:11;94556.31;;;6.88;54.93
45345;BME280;31078;48.304;11.896;2023-03-08T09:21:38;94542.81;;;7.00;54.73
45345;BME280;31078;48.304;11.896;2023-03-08T09:24:05;94545.31;;;7.05;54.34
45345;BME280;31078;48.304;11.896;2023-03-08T09:26:34;94540.44;;;6.99;53.88
45345;BME280;31078;48.304;11.896;2023-03-08T09:29:01;94541.47;;;6.94;54.43
45345;BME280;31078;48.304;11.896;2023-03-08T09:31:29;94527.38;;;7.01;54.06
45345;BME280;31078;48.304;11.896;2023-03-08T09:33:57;94519.91;;;7.10;53.38
45345;BME280;31078;48.304;11.896;2023-03-08T09:36:24;94528.38;;;6.96;53.97
45345;BME280;31078;48.304;11.896;2023-03-08T09:38:52;94527.03;;;6.90;54.16
45345;BME280;31078;48.304;11.896;2023-03-08T09:41:32;94514.84;;;6.96;53.99
45345;BME280;31078;48.304;11.896;2023-03-08T09:44:11;94513.72;;;6.97;53.86
45345;BME280;31078;48.304;11.896;2023-03-08T09:46:43;94507.16;;;6.98;53.59
45345;BME280;31078;48.304;11.896;2023-03-08T09:49:15;94512.81;;;6.81;53.48
45345;BME280;31078;48.304;11.896;2023-03-08T09:51:46;94505.84;;;6.80;54.42
45345;BME280;31078;48.304;11.896;2023-03-08T09:54:17;94506.28;;;6.70;53.98
45345;BME280;31078;48.304;11.896;2023-03-08T09:56:47;94498.41;;;6.65;54.05
45345;BME280;31078;48.304;11.896;2023-03-08T09:59:19;94490.97;;;6.74;53.45
45345;BME280;31078;48.304;11.896;2023-03-08T10:01:52;94488.81;;;6.67;53.62
45345;BME280;31078;48.304;11.896;2023-03-08T10:04:40;94483.41;;;6.79;53.89
45345;BME280;31078;48.304;11.896;2023-03-08T10:07:19;94486.44;;;6.78;53.00
45345;BME280;31078;48.304;11.896;2023-03-08T10:09:57;94483.50;;;6.83;53.02
45345;BME280;31078;48.304;11.896;2023-03-08T10:12:32;94486.44;;;6.78;53.37
45345;BME280;31078;48.304;11.896;2023-03-08T10:15:06;94490.84;;;6.95;53.38
45345;BME280;31078;48.304;11.896;2023-03-08T10:17:39;94498.81;;;7.03;53.88
45345;BME280;31078;48.304;11.896;2023-03-08T10:20:16;94504.34;;;7.07;52.90
45345;BME280;31078;48.304;11.896;2023-03-08T10:22:45;94493.66;;;7.11;52.96
45345;BME280;31078;48.304;11.896;2023-03-08T10:25:21;94490.16;;;7.10;53.31
45345;BME280;31078;48.304;11.896;2023-03-08T10:27:50;94483.06;;;6.93;53.90
45345;BME280;31078;48.304;11.896;2023-03-08T10:30:20;94483.06;;;6.93;53.72
45345;BME280;31078;48.304;11.896;2023-03-08T10:32:49;94479.47;;;6.89;53.79
45345;BME280;31078;48.304;11.896;2023-03-08T10:35:29;94486.22;;;6.95;53.92
45345;BME280;31078;48.304;11.896;2023-03-08T10:37:56;94493.31;;;7.00;53.91
45345;BME280;31078;48.304;11.896;2023-03-08T10:40:23;94494.75;;;7.10;53.81
45345;BME280;31078;48.304;11.896;2023-03-08T10:42:52;94496.56;;;7.18;54.49
45345;BME280;31078;48.304;11.896;2023-03-08T10:45:20;94494.44;;;7.11;54.22
45345;BME280;31078;48.304;11.896;2023-03-08T10:47:58;94495.13;;;6.84;54.66
45345;BME280;31078;48.304;11.896;2023-03-08T10:50:27;94500.09;;;6.69;55.91
45345;BME280;31078;48.304;11.896;2023-03-08T10:52:55;94500.88;;;6.70;56.59
45345;BME280;31078;48.304;11.896;2023-03-08T10:55:40;94496.16;;;6.54;56.68
45345;BME280;31078;48.304;11.896;2023-03-08T10:58:26;94500.72;;;6.30;57.58
45345;BME280;31078;48.304;11.896;2023-03-08T11:00:55;94504.56;;;6.16;58.17
45345;BME280;31078;48.304;11.896;2023-03-08T11:03:23;94503.94;;;6.11;58.55
45345;BME280;31078;48.304;11.896;2023-03-08T11:05:53;94505.50;;;5.99;59.82
45345;BME280;31078;48.304;11.896;2023-03-08T11:08:22;94510.25;;;5.82;61.31
45345;BME280;31078;48.304;11.896;2023-03-08T11:10:59;94512.13;;;5.69;62.77
45345;BME280;31078;48.304;11.896;2023-03-08T11:13:28;94500.25;;;5.49;65.29
45345;BME280;31078;48.304;11.896;2023-03-08T11:18:51;94508.59;;;5.14;66.00
45345;BME280;31078;48.304;11.896;2023-03-08T11:21:33;94484.75;;;4.95;69.04
45345;BME280;31078;48.304;11.896;2023-03-08T11:24:11;94490.75;;;5.01;70.43
45345;BME280;31078;48.304;11.896;2023-03-08T11:26:49;94480.41;;;4.82;72.94
45345;BME280;31078;48.304;11.896;2023-03-08T11:29:25;94493.03;;;4.90;73.38
45345;BME280;31078;48.304;11.896;2023-03-08T11:32:02;94489.03;;;4.96;72.99
45345;BME280;31078;48.304;11.896;2023-03-08T11:34:52;94489.03;;;4.96;70.99
45345;BME280;31078;48.304;11.896;2023-03-08T11:37:30;94480.03;;;4.92;70.73
45345;BME280;31078;48.304;11.896;2023-03-08T11:40:12;94482.34;;;4.73;71.50
45345;BME280;31078;48.304;11.896;2023-03-08T11:42:46;94478.16;;;4.84;74.52
45345;BME280;31078;48.304;11.896;2023-03-08T11:45:22;94477.38;;;4.84;73.83
45345;BME280;31078;48.304;11.896;2023-03-08T11:48:00;94463.75;;;4.80;75.54
45345;BME280;31078;48.304;11.896;2023-03-08T11:50:33;94462.66;;;4.81;75.37
45345;BME280;31078;48.304;11.896;2023-03-08T11:53:15;94461.34;;;4.87;75.90
45345;BME280;31078;48.304;11.896;2023-03-08T11:55:54;94435.56;;;4.98;77.35
45345;BME280;31078;48.304;11.896;2023-03-08T11:58:27;94439.50;;;5.22;78.63
45345;BME280;31078;48.304;11.896;2023-03-08T12:00:59;94423.06;;;5.48;76.79
45345;BME280;31078;48.304;11.896;2023-03-08T12:03:30;94425.63;;;5.78;75.61
45345;BME280;31078;48.304;11.896;2023-03-08T12:06:00;94425.13;;;5.96;73.91
45345;BME280;31078;48.304;11.896;2023-03-08T12:08:33;94405.78;;;6.19;73.48
45345;BME280;31078;48.304;11.896;2023-03-08T12:11:04;94392.38;;;6.35;72.46
45345;BME280;31078;48.304;11.896;2023-03-08T12:13:34;94391.38;;;6.27;70.79
45345;BME280;31078;48.304;11.896;2023-03-08T12:16:08;94384.16;;;6.43;71.29
45345;BME280;31078;48.304;11.896;2023-03-08T12:18:40;94382.91;;;6.41;72.09
45345;BME280;31078;48.304;11.896;2023-03-08T12:21:17;94373.34;;;6.43;71.84
45345;BME280;31078;48.304;11.896;2023-03-08T12:23:53;94365.47;;;6.38;71.63
45345;BME280;31078;48.304;11.896;2023-03-08T12:26:24;94355.31;;;6.47;72.48
45345;BME280;31078;48.304;11.896;2023-03-08T12:28:56;94349.69;;;6.40;71.60
45345;BME280;31078;48.304;11.896;2023-03-08T12:31:26;94356.44;;;6.46;72.26
45345;BME280;31078;48.304;11.896;2023-03-08T12:33:55;94338.13;;;6.68;72.42
45345;BME280;31078;48.304;11.896;2023-03-08T12:36:35;94345.50;;;6.95;70.69
45345;BME280;31078;48.304;11.896;2023-03-08T12:39:08;94338.63;;;6.98;69.22
45345;BME280;31078;48.304;11.896;2023-03-08T12:41:35;94353.41;;;7.00;68.92
45345;BME280;31078;48.304;11.896;2023-03-08T12:44:03;94352.50;;;7.24;68.64
45345;BME280;31078;48.304;11.896;2023-03-08T12:46:47;94343.72;;;7.43;66.79
45345;BME280;31078;48.304;11.896;2023-03-08T12:49:19;94342.72;;;7.64;68.13
45345;BME280;31078;48.304;11.896;2023-03-08T12:51:56;94346.22;;;7.80;66.24
45345;BME280;31078;48.304;11.896;2023-03-08T12:54:27;94341.41;;;7.89;65.44
45345;BME280;31078;48.304;11.896;2023-03-08T12:56:55;94343.00;;;7.90;65.85
45345;BME280;31078;48.304;11.896;2023-03-08T12:59:33;94340.53;;;8.01;65.56
45345;BME280;31078;48.304;11.896;2023-03-08T13:02:42;94337.81;;;8.17;65.97
45345;BME280;31078;48.304;11.896;2023-03-08T13:05:19;94336.41;;;8.23;64.69
45345;BME280;31078;48.304;11.896;2023-03-08T13:08:00;94335.25;;;8.40;64.03
45345;BME280;31078;48.304;11.896;2023-03-08T13:10:33;94326.72;;;8.38;63.95
45345;BME280;31078;48.304;11.896;2023-03-08T13:13:22;94328.09;;;8.47;63.43